Time;durP1;ratioP1;P1;durP2;ratioP2;P2;SDS_P1;SDS_P2;PMS_P1;PMS_P2;Temp;Humidity;BMP_temperature;BMP_pressure;BME280_temperature;BME280_humidity;BME280_pressure;Samples;Min_cycle;Max_cycle;Signal;HPM_P1;HPM_P2
2023/09/08 00:02:24;;;;;;;9.68;7.25;;;435.50;2355.20;;;;;;5088838;28;20055;-60
2023/09/08 00:04:49;;;;;;;10.38;7.88;;;435.60;2355.20;;;;;;5088616;28;20016;-61
2023/09/08 00:07:15;;;;;;;11.80;7.68;;;435.60;2355.20;;;;;;5089221;28;20111;-61
2023/09/08 00:09:41;;;;;;;11.68;7.78;;;435.60;2355.20;;;;;;5089031;28;20020;-60
2023/09/08 00:12:06;;;;;;;11.40;8.32;;;435.50;2355.20;;;;;;5088981;28;20051;-61
2023/09/08 00:14:32;;;;;;;13.98;7.88;;;435.50;2355.20;;;;;;5088884;28;20455;-61
2023/09/08 00:16:58;;;;;;;10.77;7.60;;;435.50;2355.20;;;;;;5088948;28;20024;-61
2023/09/08 00:19:24;;;;;;;10.93;7.57;;;435.30;2355.20;;;;;;5088589;28;20030;-61
2023/09/08 00:21:50;;;;;;;11.68;7.90;;;435.30;2355.20;;;;;;5088673;28;20115;-61
2023/09/08 00:24:16;;;;;;;8.95;6.90;;;435.30;2355.20;;;;;;5084436;28;20024;-61
2023/09/08 00:26:41;;;;;;;10.38;6.82;;;435.30;2355.20;;;;;;5079275;28;20028;-61
2023/09/08 00:29:07;;;;;;;10.65;6.50;;;435.30;2355.20;;;;;;5088812;28;20482;-60
2023/09/08 00:31:33;;;;;;;8.95;7.47;;;435.40;2355.20;;;;;;5089158;28;20172;-60
2023/09/08 00:33:59;;;;;;;11.85;7.63;;;435.40;2355.20;;;;;;5088963;28;20393;-61
2023/09/08 00:36:25;;;;;;;24.65;7.15;;;435.40;2355.20;;;;;;5093040;28;20417;-60
2023/09/08 00:38:50;;;;;;;8.68;6.82;;;435.40;2355.20;;;;;;5092171;28;20024;-60
2023/09/08 00:41:16;;;;;;;11.68;6.75;;;435.50;2355.20;;;;;;5092922;28;20044;-60
2023/09/08 00:43:42;;;;;;;10.00;6.53;;;435.50;2355.20;;;;;;5092503;28;20044;-61
2023/09/08 00:46:09;;;;;;;12.23;8.00;;;435.50;2355.20;;;;;;5093031;28;20070;-61
2023/09/08 00:48:35;;;;;;;12.82;7.85;;;435.40;2355.20;;;;;;5092795;28;20020;-61
2023/09/08 00:51:02;;;;;;;8.75;6.82;;;435.40;2355.20;;;;;;5092490;28;20020;-61
2023/09/08 00:53:28;;;;;;;9.52;7.45;;;435.30;2355.20;;;;;;5092094;28;20077;-61
2023/09/08 00:55:56;;;;;;;12.02;7.05;;;435.30;2355.20;;;;;;5092738;28;20032;-61
2023/09/08 00:58:21;;;;;;;8.35;6.88;;;435.30;2355.20;;;;;;5092295;28;20477;-60
2023/09/08 01:00:47;;;;;;;7.65;6.18;;;435.30;2355.20;;;;;;5092425;28;20111;-61
2023/09/08 01:03:13;;;;;;;10.95;7.68;;;435.30;2355.20;;;;;;5090208;28;20366;-61
2023/09/08 01:05:40;;;;;;;9.43;6.82;;;435.30;2355.20;;;;;;5092544;28;20347;-62
2023/09/08 01:08:07;;;;;;;10.13;6.90;;;435.20;2355.20;;;;;;5091994;28;20374;-62
2023/09/08 01:10:33;;;;;;;14.40;6.90;;;410.50;2355.20;;;;;;5092075;28;20031;-61
2023/09/08 01:12:59;;;;;;;9.82;6.78;;;410.50;2355.20;;;;;;5091630;28;20024;-61
2023/09/08 01:15:25;;;;;;;9.02;6.65;;;410.50;2355.20;;;;;;5092512;28;20428;-61
2023/09/08 01:17:50;;;;;;;8.85;6.75;;;410.50;2355.20;;;;;;5091299;28;20099;-60
2023/09/08 01:20:30;;;;;;;8.75;6.68;;;410.50;2355.20;;;;;;5092185;28;20080;-61
2023/09/08 01:23:26;;;;;;;9.02;6.13;;;410.50;2355.20;;;;;;5091485;28;20067;-61
2023/09/08 01:26:10;;;;;;;8.02;6.50;;;410.50;2355.20;;;;;;5009003;28;20583;-61
2023/09/08 01:28:39;;;;;;;14.23;7.15;;;435.20;2355.20;;;;;;5010008;28;20087;-61
2023/09/08 01:31:05;;;;;;;11.48;7.13;;;435.20;2355.20;;;;;;5009945;28;20108;-61
2023/09/08 01:33:31;;;;;;;11.25;6.95;;;410.50;2355.20;;;;;;5008860;28;20350;-62
2023/09/08 01:35:57;;;;;;;13.48;7.32;;;410.50;2355.20;;;;;;5009648;28;20369;-61
2023/09/08 01:38:24;;;;;;;10.32;7.25;;;410.50;2355.20;;;;;;5008421;28;20037;-61
2023/09/08 01:40:50;;;;;;;9.65;7.60;;;410.30;2355.20;;;;;;5009440;28;20101;-61
2023/09/08 01:43:15;;;;;;;9.73;7.20;;;410.20;2355.20;;;;;;5008494;28;20134;-61
2023/09/08 01:45:41;;;;;;;8.60;6.90;;;410.20;2355.20;;;;;;5008200;28;20018;-61
2023/09/08 01:48:07;;;;;;;9.95;7.05;;;410.20;2355.20;;;;;;5008541;28;20037;-61
2023/09/08 01:50:32;;;;;;;9.65;6.82;;;410.10;2355.20;;;;;;5009314;28;20388;-61
2023/09/08 01:52:58;;;;;;;8.57;7.05;;;409.90;2355.20;;;;;;5008289;28;20054;-62
2023/09/08 01:55:24;;;;;;;9.52;7.55;;;410.00;2355.20;;;;;;5009289;28;20112;-60
2023/09/08 01:57:49;;;;;;;8.40;6.97;;;410.00;2355.20;;;;;;5008775;28;20022;-61
2023/09/08 02:00:15;;;;;;;11.07;7.18;;;410.10;2355.20;;;;;;5009083;28;20037;-61
2023/09/08 02:02:41;;;;;;;11.57;6.65;;;410.10;2355.20;;;;;;5046981;28;20055;-63
2023/09/08 02:05:09;;;;;;;8.25;6.80;;;410.10;2355.20;;;;;;5091659;28;20069;-61
2023/09/08 02:07:35;;;;;;;12.70;6.80;;;410.10;2355.20;;;;;;5091152;28;20524;-61
2023/09/08 02:10:00;;;;;;;9.60;6.93;;;410.00;2355.20;;;;;;5091268;28;20103;-62
2023/09/08 02:12:26;;;;;;;10.65;7.10;;;410.10;2355.20;;;;;;5090652;28;20047;-62
2023/09/08 02:14:52;;;;;;;10.57;8.50;;;410.00;2355.20;;;;;;5091025;28;20024;-62
2023/09/08 02:17:18;;;;;;;10.82;7.20;;;410.00;2355.20;;;;;;5090470;28;20466;-62
2023/09/08 02:19:43;;;;;;;8.75;7.75;;;410.00;2355.20;;;;;;5064683;28;20024;-60
2023/09/08 02:22:09;;;;;;;9.88;7.72;;;410.00;2355.20;;;;;;5090172;28;20048;-61
2023/09/08 02:24:35;;;;;;;9.00;6.82;;;409.90;2355.20;;;;;;5091280;28;20052;-60
2023/09/08 02:27:01;;;;;;;9.98;7.55;;;409.90;2355.20;;;;;;5090466;28;20028;-59
2023/09/08 02:29:26;;;;;;;8.52;7.10;;;409.90;2355.20;;;;;;5090639;28;20040;-59
2023/09/08 02:31:52;;;;;;;8.75;6.70;;;409.80;2355.20;;;;;;5090403;28;20037;-59
2023/09/08 02:34:18;;;;;;;12.82;6.82;;;409.80;2355.20;;;;;;5089996;28;20028;-60
2023/09/08 02:36:43;;;;;;;10.07;7.32;;;409.80;2355.20;;;;;;5090752;28;20104;-59
2023/09/08 02:39:10;;;;;;;13.85;8.40;;;409.90;2355.20;;;;;;5090051;28;20028;-59
2023/09/08 02:41:36;;;;;;;11.13;8.30;;;409.90;2355.20;;;;;;5090288;28;20016;-59
2023/09/08 02:44:02;;;;;;;12.10;7.22;;;409.90;2355.20;;;;;;5089947;28;20035;-60
2023/09/08 02:46:27;;;;;;;13.98;7.82;;;409.60;2355.20;;;;;;5089977;28;20035;-60
2023/09/08 02:48:53;;;;;;;10.38;7.85;;;409.70;2355.20;;;;;;5089515;28;20020;-60
2023/09/08 02:51:19;;;;;;;10.95;7.07;;;409.70;2355.20;;;;;;5089876;28;20032;-60
2023/09/08 02:53:44;;;;;;;11.68;7.68;;;409.70;2355.20;;;;;;5090116;28;20103;-59
2023/09/08 02:56:10;;;;;;;9.93;7.25;;;409.70;2355.20;;;;;;5090091;28;20077;-60
2023/09/08 02:58:36;;;;;;;10.63;6.85;;;409.70;2355.20;;;;;;5090000;28;20016;-59
2023/09/08 03:01:16;;;;;;;13.00;8.00;;;409.60;2355.20;;;;;;5089924;28;20486;-59
2023/09/08 03:03:42;;;;;;;10.55;7.88;;;409.60;2355.20;;;;;;5066326;28;20428;-60
2023/09/08 03:06:09;;;;;;;9.98;6.63;;;409.60;2355.20;;;;;;5089356;28;20500;-61
2023/09/08 03:08:36;;;;;;;9.77;7.55;;;384.90;2329.60;;;;;;5090064;28;20035;-60
2023/09/08 03:11:03;;;;;;;9.07;7.30;;;409.60;2355.20;;;;;;5089331;28;20055;-60
2023/09/08 03:13:29;;;;;;;12.35;8.10;;;409.60;2355.20;;;;;;5089801;28;20019;-60
2023/09/08 03:15:55;;;;;;;12.27;7.47;;;409.60;2355.20;;;;;;5089442;28;20084;-60
2023/09/08 03:18:21;;;;;;;10.45;7.88;;;409.60;2355.20;;;;;;5089684;28;20191;-59
2023/09/08 03:20:52;;;;;;;11.07;8.02;;;409.70;2355.20;;;;;;5089246;28;20035;-59
2023/09/08 03:23:18;;;;;;;11.60;9.00;;;409.60;2355.20;;;;;;5089105;28;20516;-59
2023/09/08 03:25:43;;;;;;;10.00;8.32;;;409.70;2355.20;;;;;;5089727;28;20024;-59
2023/09/08 03:28:11;;;;;;;10.15;7.88;;;409.60;2355.20;;;;;;5089243;28;20024;-60
2023/09/08 03:30:37;;;;;;;12.00;8.05;;;409.70;2355.20;;;;;;5089273;28;20058;-59
2023/09/08 03:33:03;;;;;;;10.65;8.02;;;409.60;2355.20;;;;;;5089264;28;20048;-59
2023/09/08 03:35:28;;;;;;;9.43;8.23;;;409.60;2355.20;;;;;;5089059;28;20059;-60
2023/09/08 03:37:54;;;;;;;10.10;7.35;;;384.90;2329.60;;;;;;5089170;28;20028;-60
2023/09/08 03:40:20;;;;;;;13.13;8.32;;;384.90;2329.60;;;;;;5088972;28;20070;-59
2023/09/08 03:42:45;;;;;;;10.10;7.90;;;384.90;2329.60;;;;;;5089582;28;20529;-58
2023/09/08 03:45:11;;;;;;;12.38;8.95;;;384.90;2329.60;;;;;;5088690;28;20044;-59
2023/09/08 03:47:36;;;;;;;12.07;8.82;;;384.90;2329.60;;;;;;5088858;28;20028;-60
2023/09/08 03:50:02;;;;;;;10.43;8.18;;;384.90;2329.60;;;;;;5088764;28;20043;-59
2023/09/08 03:52:28;;;;;;;8.98;7.78;;;384.80;2329.60;;;;;;5088738;28;20020;-59
2023/09/08 03:54:54;;;;;;;13.65;8.93;;;384.70;2329.60;;;;;;5088881;28;20024;-59
2023/09/08 03:57:19;;;;;;;11.82;7.68;;;384.80;2329.60;;;;;;5088846;28;20028;-59
2023/09/08 03:59:45;;;;;;;9.98;7.57;;;384.80;2329.60;;;;;;5089380;28;20103;-58
2023/09/08 04:02:11;;;;;;;15.75;8.13;;;384.90;2329.60;;;;;;5088944;28;20030;-59
2023/09/08 04:04:36;;;;;;;12.85;7.45;;;384.90;2329.60;;;;;;5088526;28;20028;-61
2023/09/08 04:07:02;;;;;;;11.68;8.02;;;384.90;2329.60;;;;;;5088813;28;20104;-61
2023/09/08 04:09:28;;;;;;;8.50;7.60;;;384.90;2329.60;;;;;;5088172;28;20035;-60
2023/09/08 04:11:54;;;;;;;10.73;7.72;;;384.80;2329.60;;;;;;5088912;28;20072;-60
2023/09/08 04:14:23;;;;;;;10.35;8.40;;;384.80;2329.60;;;;;;5088651;28;20505;-59
2023/09/08 04:16:49;;;;;;;12.75;7.97;;;384.70;2329.60;;;;;;5088594;28;20020;-60
2023/09/08 04:19:14;;;;;;;11.15;7.70;;;384.70;2329.60;;;;;;5088574;28;20031;-60
2023/09/08 04:21:41;;;;;;;8.63;7.47;;;384.80;2329.60;;;;;;5088536;28;20047;-61
2023/09/08 04:24:07;;;;;;;10.77;7.28;;;384.80;2329.60;;;;;;5085688;28;20111;-60
2023/09/08 04:26:32;;;;;;;11.23;7.32;;;384.80;2329.60;;;;;;5078331;28;20427;-60
2023/09/08 04:28:58;;;;;;;9.80;8.05;;;384.80;2329.60;;;;;;5074474;28;20020;-60
2023/09/08 04:31:24;;;;;;;12.68;7.90;;;384.80;2329.60;;;;;;5087221;28;20028;-60
2023/09/08 04:33:49;;;;;;;11.93;7.20;;;384.90;2329.60;;;;;;5087883;28;20028;-59
2023/09/08 04:36:15;;;;;;;11.75;8.55;;;409.60;2355.20;;;;;;5087126;28;20119;-60
2023/09/08 04:38:41;;;;;;;10.38;7.93;;;409.60;2355.20;;;;;;5088133;28;20008;-60
2023/09/08 04:41:07;;;;;;;10.15;7.80;;;409.60;2355.20;;;;;;5088764;28;20710;-61
2023/09/08 04:43:33;;;;;;;12.70;8.00;;;409.60;2355.20;;;;;;5088056;28;20060;-60
2023/09/08 04:45:58;;;;;;;11.27;8.13;;;409.80;2355.20;;;;;;5086702;28;20095;-60
2023/09/08 04:48:24;;;;;;;11.23;8.63;;;409.90;2355.20;;;;;;5086677;28;20055;-61
2023/09/08 04:50:51;;;;;;;10.80;7.72;;;409.90;2355.20;;;;;;5086506;28;20028;-60
2023/09/08 04:53:17;;;;;;;9.18;7.10;;;410.00;2355.20;;;;;;5086716;28;20028;-61
2023/09/08 04:55:43;;;;;;;11.52;8.18;;;410.10;2355.20;;;;;;5086696;28;20016;-60
2023/09/08 04:58:09;;;;;;;12.00;7.70;;;410.10;2355.20;;;;;;5086592;28;20016;-60
2023/09/08 05:00:37;;;;;;;10.23;7.32;;;410.20;2355.20;;;;;;5086623;28;20024;-60
2023/09/08 05:03:03;;;;;;;11.23;8.05;;;410.30;2355.20;;;;;;5086330;28;20031;-60
2023/09/08 05:05:28;;;;;;;10.57;8.43;;;410.50;2355.20;;;;;;5086705;28;20024;-60
2023/09/08 05:07:56;;;;;;;10.45;7.78;;;435.20;2355.20;;;;;;5087175;28;20394;-60
2023/09/08 05:10:22;;;;;;;11.02;8.40;;;435.50;2355.20;;;;;;5086919;28;20059;-60
2023/09/08 05:12:49;;;;;;;9.65;7.15;;;436.00;2355.20;;;;;;5086148;28;20078;-60
2023/09/08 05:15:16;;;;;;;12.35;8.25;;;460.90;2380.80;;;;;;5087422;28;20359;-60
2023/09/08 05:17:42;;;;;;;10.13;7.60;;;461.20;2380.80;;;;;;5086345;28;20028;-60
2023/09/08 05:20:09;;;;;;;11.18;7.47;;;461.40;2380.80;;;;;;5086697;28;20028;-60
2023/09/08 05:22:35;;;;;;;15.15;7.82;;;461.70;2380.80;;;;;;5089304;28;20061;-60
2023/09/08 05:25:00;;;;;;;10.20;7.90;;;461.70;2380.80;;;;;;5089827;28;20512;-60
2023/09/08 05:27:26;;;;;;;11.00;7.28;;;461.70;2380.80;;;;;;5090183;28;20024;-59
2023/09/08 05:29:52;;;;;;;8.60;7.22;;;486.40;2380.80;;;;;;5090405;28;20035;-59
2023/09/08 05:32:18;;;;;;;9.55;7.18;;;486.50;2380.80;;;;;;5090488;28;20016;-60
2023/09/08 05:34:44;;;;;;;7.88;6.53;;;486.50;2380.80;;;;;;5090366;28;20489;-60
2023/09/08 05:37:10;;;;;;;9.05;7.43;;;486.60;2380.80;;;;;;5090190;28;20032;-60
2023/09/08 05:39:35;;;;;;;8.85;7.28;;;487.20;2380.80;;;;;;5092219;28;20346;-59
2023/09/08 05:42:01;;;;;;;16.15;7.30;;;512.80;2380.80;;;;;;5090832;28;20028;-59
2023/09/08 05:44:27;;;;;;;11.27;7.07;;;512.70;2380.80;;;;;;5091817;28;20134;-59
2023/09/08 05:46:52;;;;;;;8.60;6.95;;;512.80;2380.80;;;;;;5077485;28;20019;-59
2023/09/08 05:49:18;;;;;;;8.93;6.80;;;512.80;2380.80;;;;;;5091367;28;20031;-59
2023/09/08 05:51:44;;;;;;;14.68;7.97;;;512.90;2380.80;;;;;;5086071;28;20547;-59
2023/09/08 05:54:11;;;;;;;13.10;7.68;;;537.60;2406.40;;;;;;5090563;28;20035;-60
2023/09/08 05:56:38;;;;;;;16.25;10.82;;;512.80;2380.80;;;;;;5091769;28;20504;-59
2023/09/08 05:59:04;;;;;;;9.18;7.15;;;537.90;2406.40;;;;;;5090951;28;20364;-59
2023/09/08 06:01:30;;;;;;;12.48;8.35;;;589.00;2432.00;;;;;;5090798;28;20097;-59
2023/09/08 06:03:56;;;;;;;10.10;8.05;;;666.00;2278.40;;;;;;5090984;28;20043;-59
2023/09/08 06:06:22;;;;;;;11.55;7.03;;;717.70;1971.20;;;;;;5091102;28;20020;-59
2023/09/08 06:08:48;;;;;;;18.58;10.20;;;793.80;1817.60;;;;;;5091442;28;20032;-59
2023/09/08 06:11:14;;;;;;;11.15;8.90;;;844.90;1638.40;;;;;;5091156;28;20101;-59
2023/09/08 06:13:40;;;;;;;10.02;8.70;;;845.70;1561.60;;;;;;5090834;28;20056;-60
2023/09/08 06:16:06;;;;;;;10.57;8.23;;;870.90;1510.40;;;;;;5086153;28;20497;-59
2023/09/08 06:18:31;;;;;;;9.50;7.82;;;871.30;1484.80;;;;;;5070659;28;20359;-60
2023/09/08 06:20:58;;;;;;;10.07;8.02;;;871.30;1459.20;;;;;;5070633;28;20032;-63
2023/09/08 06:23:23;;;;;;;10.27;9.15;;;871.00;1484.80;;;;;;5070824;28;20048;-61
2023/09/08 06:25:50;;;;;;;8.88;8.07;;;870.40;1510.40;;;;;;5089093;28;20016;-62
2023/09/08 06:28:15;;;;;;;10.65;9.57;;;870.90;1484.80;;;;;;5090992;28;20020;-62
2023/09/08 06:30:41;;;;;;;10.32;9.32;;;921.60;1433.60;;;;;;5090522;28;20156;-63
2023/09/08 06:33:10;;;;;;;9.70;8.75;;;921.80;1408.00;;;;;;5077765;28;20025;-63
2023/09/08 06:35:36;;;;;;;11.25;8.88;;;922.20;1408.00;;;;;;5070599;28;20485;-63
2023/09/08 06:38:02;;;;;;;11.35;10.35;;;973.20;1331.20;;;;;;5070236;28;20040;-63
2023/09/08 06:40:29;;;;;;;13.25;9.93;;;947.20;1356.80;;;;;;5090820;28;20111;-63
2023/09/08 06:42:55;;;;;;;12.82;10.18;;;922.30;1382.40;;;;;;5090293;28;20036;-64
2023/09/08 06:45:21;;;;;;;12.40;11.10;;;947.30;1356.80;;;;;;5090671;28;20027;-62
2023/09/08 06:47:46;;;;;;;10.82;9.70;;;921.80;1382.40;;;;;;5090624;28;20036;-64
2023/09/08 06:50:12;;;;;;;12.43;9.73;;;896.50;1408.00;;;;;;5090221;28;20024;-63
2023/09/08 06:52:38;;;;;;;11.48;10.38;;;921.80;1408.00;;;;;;5090162;28;20032;-64
2023/09/08 06:55:05;;;;;;;11.63;10.52;;;947.20;1331.20;;;;;;5090175;28;20069;-62
2023/09/08 06:57:30;;;;;;;12.82;11.52;;;922.00;1382.40;;;;;;5090005;28;20478;-63
2023/09/08 06:59:56;;;;;;;11.38;10.38;;;922.00;1356.80;;;;;;5090023;28;20094;-63
2023/09/08 07:02:22;;;;;;;11.82;10.82;;;947.80;1305.60;;;;;;5089803;28;20036;-63
2023/09/08 07:04:47;;;;;;;11.68;10.68;;;947.60;1280.00;;;;;;5089518;28;20016;-61
2023/09/08 07:07:13;;;;;;;12.52;11.25;;;973.30;1254.40;;;;;;5090016;28;20028;-61
2023/09/08 07:09:39;;;;;;;12.90;11.90;;;1024.60;1177.60;;;;;;5089846;28;20405;-61
2023/09/08 07:12:06;;;;;;;13.88;12.82;;;1049.70;1177.60;;;;;;5089927;28;20070;-61
2023/09/08 07:14:32;;;;;;;12.55;11.35;;;1024.30;1203.20;;;;;;5089808;28;20442;-61
2023/09/08 07:16:58;;;;;;;13.63;12.18;;;1024.00;1203.20;;;;;;5088764;28;20020;-63
2023/09/08 07:19:23;;;;;;;13.65;12.60;;;998.40;1228.80;;;;;;5089792;28;20023;-63
2023/09/08 07:21:49;;;;;;;12.98;11.93;;;998.60;1203.20;;;;;;5073584;28;20025;-63
2023/09/08 07:24:15;;;;;;;14.50;13.02;;;1024.70;1177.60;;;;;;5087437;28;20491;-63
2023/09/08 07:26:40;;;;;;;12.13;11.20;;;1050.40;1152.00;;;;;;5088242;28;20457;-60
2023/09/08 07:29:06;;;;;;;14.45;13.23;;;973.40;1203.20;;;;;;5088377;28;20042;-61
2023/09/08 07:31:33;;;;;;;16.80;14.75;;;1024.20;1152.00;;;;;;5088138;28;20056;-60
2023/09/08 07:33:59;;;;;;;14.60;13.20;;;999.10;1177.60;;;;;;5087962;28;20409;-61
2023/09/08 07:36:24;;;;;;;14.10;12.90;;;947.70;1228.80;;;;;;5086235;28;20107;-61
2023/09/08 07:38:50;;;;;;;15.07;13.52;;;947.90;1228.80;;;;;;5075488;28;20496;-61
2023/09/08 07:41:16;;;;;;;13.75;12.50;;;1024.20;1203.20;;;;;;5088390;28;20055;-61
2023/09/08 07:43:44;;;;;;;15.02;13.48;;;1024.90;1152.00;;;;;;5087483;28;20044;-60
2023/09/08 07:46:10;;;;;;;16.75;13.05;;;1024.30;1152.00;;;;;;5087504;28;20040;-61
2023/09/08 07:48:35;;;;;;;12.52;11.48;;;973.00;1228.80;;;;;;5088292;28;20117;-62
2023/09/08 07:51:01;;;;;;;15.52;12.80;;;998.40;1177.60;;;;;;5087070;28;20135;-60
2023/09/08 07:53:27;;;;;;;14.98;12.35;;;947.90;1228.80;;;;;;5087828;28;20070;-61
2023/09/08 07:55:53;;;;;;;14.38;13.07;;;998.80;1177.60;;;;;;5087868;28;20028;-60
2023/09/08 07:58:19;;;;;;;22.15;14.10;;;973.40;1203.20;;;;;;5087862;28;20470;-61
2023/09/08 08:00:44;;;;;;;16.33;13.07;;;948.00;1228.80;;;;;;5087681;28;20378;-62
2023/09/08 08:03:10;;;;;;;14.75;13.25;;;973.30;1228.80;;;;;;5087004;28;20038;-60
2023/09/08 08:05:36;;;;;;;19.83;12.57;;;1024.90;1152.00;;;;;;5087494;28;20089;-63
2023/09/08 08:08:02;;;;;;;14.90;12.52;;;1024.00;1177.60;;;;;;5087370;28;20425;-63
2023/09/08 08:10:27;;;;;;;19.48;14.77;;;998.40;1228.80;;;;;;5087311;28;20028;-62
2023/09/08 08:12:53;;;;;;;18.95;14.57;;;973.70;1177.60;;;;;;5087738;28;20460;-62
2023/09/08 08:15:23;;;;;;;19.65;14.80;;;1024.40;1152.00;;;;;;5087181;28;20044;-62
2023/09/08 08:17:49;;;;;;;21.00;13.70;;;973.60;1203.20;;;;;;5087029;28;20026;-66
2023/09/08 08:20:18;;;;;;;26.15;13.60;;;999.00;1177.60;;;;;;5087381;28;20024;-69
2023/09/08 08:22:46;;;;;;;19.02;14.23;;;998.80;1203.20;;;;;;5087241;28;20040;-66
2023/09/08 08:25:12;;;;;;;14.20;12.80;;;1024.50;1152.00;;;;;;5087239;28;20081;-64
2023/09/08 08:27:39;;;;;;;15.20;12.98;;;1075.60;1100.80;;;;;;5086992;28;20408;-64
2023/09/08 08:30:06;;;;;;;15.80;13.20;;;1075.30;1126.40;;;;;;5087225;28;20028;-64
2023/09/08 08:32:33;;;;;;;16.17;14.52;;;1050.00;1126.40;;;;;;5086890;28;20032;-65
2023/09/08 08:34:58;;;;;;;14.88;13.00;;;1024.30;1152.00;;;;;;5087711;28;20028;-66
2023/09/08 08:37:24;;;;;;;16.23;14.25;;;1024.30;1152.00;;;;;;5076493;28;20032;-66
2023/09/08 08:39:50;;;;;;;13.60;12.20;;;973.20;1228.80;;;;;;5085227;28;20107;-65
2023/09/08 08:42:15;;;;;;;13.18;11.90;;;948.00;1203.20;;;;;;5088751;28;20486;-66
2023/09/08 08:44:42;;;;;;;14.10;12.73;;;998.60;1203.20;;;;;;5088536;28;20020;-63
2023/09/08 08:47:09;;;;;;;12.13;11.00;;;972.90;1203.20;;;;;;5088931;28;20084;-64
2023/09/08 08:49:36;;;;;;;11.38;10.20;;;922.50;1254.40;;;;;;5088434;28;20099;-65
2023/09/08 08:52:06;;;;;;;12.88;9.80;;;922.00;1280.00;;;;;;5088674;28;20351;-64
2023/09/08 08:54:40;;;;;;;12.57;9.35;;;844.80;1408.00;;;;;;5087946;28;20466;-64
2023/09/08 08:57:07;;;;;;;10.90;9.27;;;819.20;1459.20;;;;;;5092861;28;20016;-64
2023/09/08 08:59:33;;;;;;;13.18;9.10;;;794.00;1484.80;;;;;;5092181;28;20028;-64
2023/09/08 09:01:59;;;;;;;13.85;8.18;;;794.20;1484.80;;;;;;5092269;28;20027;-63
2023/09/08 09:04:26;;;;;;;10.90;8.38;;;794.10;1510.40;;;;;;5092585;28;20034;-64
2023/09/08 09:06:55;;;;;;;9.88;8.15;;;794.30;1459.20;;;;;;5092431;28;20025;-65
2023/09/08 09:09:21;;;;;;;9.35;7.93;;;768.80;1484.80;;;;;;5092093;28;20089;-62
2023/09/08 09:11:47;;;;;;;8.38;7.22;;;768.80;1510.40;;;;;;5092149;28;20526;-62
2023/09/08 09:14:12;;;;;;;9.65;7.60;;;768.10;1561.60;;;;;;5091636;28;20555;-62
2023/09/08 09:16:43;;;;;;;12.10;7.78;;;768.40;1561.60;;;;;;5092518;28;20055;-61
2023/09/08 09:19:08;;;;;;;9.00;7.75;;;768.00;1587.20;;;;;;5091805;28;20145;-61
2023/09/08 09:21:50;;;;;;;8.60;7.40;;;768.20;1536.00;;;;;;5092082;28;20380;-64
2023/09/08 09:24:40;;;;;;;13.98;7.93;;;768.10;1561.60;;;;;;5091932;28;20064;-64
2023/09/08 09:27:07;;;;;;;10.15;7.18;;;768.30;1561.60;;;;;;5092126;28;20028;-64
2023/09/08 09:29:34;;;;;;;10.88;7.20;;;743.00;1587.20;;;;;;5091880;28;20470;-63
2023/09/08 09:32:10;;;;;;;8.27;7.22;;;768.10;1587.20;;;;;;5078006;28;20055;-64
2023/09/08 09:34:36;;;;;;;22.70;8.20;;;768.30;1561.60;;;;;;5092202;28;20398;-65
2023/09/08 09:37:05;;;;;;;9.60;7.60;;;743.10;1587.20;;;;;;5091836;28;20099;-63
2023/09/08 09:39:30;;;;;;;11.43;6.93;;;743.30;1561.60;;;;;;5091498;28;20540;-63
2023/09/08 09:41:57;;;;;;;11.45;7.60;;;768.10;1561.60;;;;;;5091359;28;20071;-64
2023/09/08 09:44:24;;;;;;;7.82;6.90;;;768.20;1561.60;;;;;;5091491;28;20102;-63
2023/09/08 09:46:52;;;;;;;9.38;7.10;;;768.30;1561.60;;;;;;5091247;28;20016;-62
2023/09/08 09:49:18;;;;;;;8.55;6.85;;;768.60;1536.00;;;;;;5091641;28;20028;-63
2023/09/08 09:51:48;;;;;;;8.85;7.50;;;768.40;1510.40;;;;;;5091320;28;20044;-63
2023/09/08 09:54:15;;;;;;;10.57;7.30;;;743.10;1536.00;;;;;;5091606;28;20064;-63
2023/09/08 09:56:41;;;;;;;7.97;7.18;;;742.80;1536.00;;;;;;5090745;28;20144;-64
2023/09/08 09:59:12;;;;;;;9.55;7.20;;;768.00;1536.00;;;;;;5091297;28;20028;-64
2023/09/08 10:01:39;;;;;;;10.57;6.57;;;743.00;1561.60;;;;;;5091462;28;20046;-64
2023/09/08 10:04:06;;;;;;;8.15;6.43;;;768.00;1536.00;;;;;;5091022;28;20036;-63
2023/09/08 10:06:33;;;;;;;10.32;6.80;;;743.10;1510.40;;;;;;5089344;28;20034;-63
2023/09/08 10:09:01;;;;;;;9.73;5.63;;;768.00;1510.40;;;;;;5090698;28;20382;-66
2023/09/08 10:11:32;;;;;;;10.02;6.40;;;743.10;1510.40;;;;;;5090861;28;20048;-65
2023/09/08 10:14:00;;;;;;;9.20;6.05;;;742.90;1510.40;;;;;;5091268;28;20047;-63
2023/09/08 10:16:28;;;;;;;7.32;5.60;;;742.80;1510.40;;;;;;5091079;28;20020;-63
2023/09/08 10:18:57;;;;;;;6.40;5.38;;;743.30;1484.80;;;;;;5090866;28;20024;-65
2023/09/08 10:21:26;;;;;;;8.43;6.43;;;742.90;1459.20;;;;;;5065083;28;20028;-62
2023/09/08 10:24:22;;;;;;;9.88;6.13;;;743.20;1459.20;;;;;;5090350;28;20036;-64
2023/09/08 10:26:55;;;;;;;7.72;5.47;;;743.30;1459.20;;;;;;5090834;28;20028;-61
2023/09/08 10:29:23;;;;;;;9.35;5.93;;;743.00;1459.20;;;;;;5090195;28;20107;-63
2023/09/08 10:31:49;;;;;;;7.15;5.30;;;743.00;1459.20;;;;;;5090724;28;20024;-63
2023/09/08 10:34:15;;;;;;;6.85;5.53;;;742.90;1433.60;;;;;;5077113;28;20078;-63
2023/09/08 10:36:41;;;;;;;9.45;5.90;;;742.80;1459.20;;;;;;5090759;28;20028;-62
2023/09/08 10:39:41;;;;;;;6.40;5.47;;;742.90;1459.20;;;;;;5090469;28;20023;-64
2023/09/08 10:42:22;;;;;;;9.57;5.75;;;742.70;1459.20;;;;;;5007910;28;20041;-63
2023/09/08 10:44:56;;;;;;;15.77;6.10;;;742.60;1484.80;;;;;;5008324;28;20073;-64
2023/09/08 10:47:23;;;;;;;9.48;6.90;;;742.70;1484.80;;;;;;5007712;28;20444;-61
2023/09/08 10:49:53;;;;;;;14.00;6.60;;;743.00;1459.20;;;;;;5007678;28;20068;-62
2023/09/08 10:52:22;;;;;;;8.60;5.53;;;742.90;1459.20;;;;;;5007858;28;20574;-64
2023/09/08 10:54:49;;;;;;;9.25;6.53;;;742.90;1433.60;;;;;;5007680;28;20026;-63
2023/09/08 10:57:17;;;;;;;10.98;5.72;;;743.00;1433.60;;;;;;4999999;28;20060;-61
2023/09/08 10:59:51;;;;;;;8.18;5.40;;;743.10;1433.60;;;;;;5003509;28;20029;-64
2023/09/08 11:02:35;;;;;;;6.53;5.25;;;742.80;1433.60;;;;;;5008001;28;20033;-63
2023/09/08 11:05:01;;;;;;;9.48;5.60;;;742.80;1433.60;;;;;;5006848;28;20463;-61
2023/09/08 11:07:28;;;;;;;10.02;6.03;;;742.90;1459.20;;;;;;5007908;28;20116;-62
2023/09/08 11:09:54;;;;;;;9.43;5.47;;;742.90;1433.60;;;;;;5006849;28;20030;-62
2023/09/08 11:12:22;;;;;;;7.15;5.47;;;743.10;1433.60;;;;;;5007555;28;20053;-62
2023/09/08 11:14:49;;;;;;;7.47;5.43;;;743.10;1433.60;;;;;;5007577;28;20101;-63
2023/09/08 11:17:15;;;;;;;6.68;5.15;;;743.30;1459.20;;;;;;5034611;28;20485;-63
2023/09/08 11:19:47;;;;;;;9.70;6.20;;;743.20;1408.00;;;;;;5088791;28;20051;-62
2023/09/08 11:22:14;;;;;;;7.32;5.57;;;743.10;1408.00;;;;;;5089277;28;20028;-63
2023/09/08 11:24:42;;;;;;;8.40;5.68;;;743.20;1408.00;;;;;;5089616;28;20060;-63
2023/09/08 11:27:08;;;;;;;10.10;5.05;;;742.90;1433.60;;;;;;5089936;28;20028;-62
2023/09/08 11:29:34;;;;;;;7.20;5.45;;;742.60;1459.20;;;;;;5089785;28;20107;-63
2023/09/08 11:32:02;;;;;;;6.43;5.82;;;742.70;1459.20;;;;;;5089530;28;20114;-61
2023/09/08 11:34:28;;;;;;;7.47;5.38;;;742.80;1433.60;;;;;;5087697;28;20032;-63
2023/09/08 11:36:54;;;;;;;7.72;5.72;;;742.80;1433.60;;;;;;5089505;28;20024;-61
2023/09/08 11:39:25;;;;;;;7.38;5.10;;;742.90;1433.60;;;;;;5089401;28;20031;-63
2023/09/08 11:41:51;;;;;;;7.07;4.78;;;743.00;1408.00;;;;;;5089189;28;20034;-63
2023/09/08 11:44:19;;;;;;;6.50;5.80;;;742.90;1408.00;;;;;;5089690;28;20039;-63
2023/09/08 11:46:48;;;;;;;12.65;6.15;;;742.90;1433.60;;;;;;5089369;28;20023;-62
2023/09/08 11:49:14;;;;;;;6.57;5.43;;;742.90;1433.60;;;;;;5089824;28;20410;-62
2023/09/08 11:51:39;;;;;;;6.38;5.60;;;742.60;1433.60;;;;;;5089020;28;20027;-64
2023/09/08 11:54:05;;;;;;;7.00;4.88;;;742.90;1459.20;;;;;;5089428;28;20035;-63
2023/09/08 11:56:32;;;;;;;17.00;6.15;;;742.50;1459.20;;;;;;5088887;28;20433;-63
2023/09/08 11:58:58;;;;;;;7.63;5.80;;;742.40;1484.80;;;;;;5089430;28;20073;-63
2023/09/08 12:01:24;;;;;;;6.93;5.03;;;742.90;1433.60;;;;;;5088924;28;20020;-62
2023/09/08 12:03:57;;;;;;;14.90;7.00;;;742.80;1433.60;;;;;;5088658;28;20061;-63
2023/09/08 12:06:27;;;;;;;9.70;5.82;;;742.80;1433.60;;;;;;5089126;28;20108;-63
2023/09/08 12:08:54;;;;;;;11.07;5.93;;;742.80;1459.20;;;;;;5089065;28;20483;-63